createdAt,value
2023-05-01T00:00:05.797Z,16.15
2023-05-01T00:03:15.654Z,16.11
2023-05-01T00:06:10.597Z,16.09
2023-05-01T00:09:16.342Z,16.08
2023-05-01T00:11:45.176Z,16.09
2023-05-01T00:14:14.065Z,16.09
2023-05-01T00:16:47.247Z,16.10
2023-05-01T00:20:06.294Z,16.09
2023-05-01T00:22:36.296Z,16.08
2023-05-01T00:25:29.369Z,16.10
2023-05-01T00:28:01.533Z,16.11
2023-05-01T00:30:51.760Z,16.09
2023-05-01T00:33:23.651Z,16.10
2023-05-01T00:35:56.903Z,16.08
2023-05-01T00:38:26.199Z,16.06
2023-05-01T00:40:55.283Z,16.03
2023-05-01T00:43:24.548Z,15.98
2023-05-01T00:45:56.460Z,15.92
2023-05-01T00:48:25.587Z,15.87
2023-05-01T00:51:14.336Z,15.85
2023-05-01T00:54:05.220Z,15.83
2023-05-01T00:56:39.800Z,15.83
2023-05-01T00:59:28.333Z,15.81
2023-05-01T01:02:47.766Z,15.81
2023-05-01T01:05:20.433Z,15.82
2023-05-01T01:08:17.779Z,15.79
2023-05-01T01:11:41.329Z,15.74
2023-05-01T01:14:13.401Z,15.71
2023-05-01T01:18:05.709Z,15.71
2023-05-01T01:21:07.542Z,15.73
2023-05-01T01:24:13.545Z,15.73
2023-05-01T01:27:24.113Z,15.75
2023-05-01T01:29:57.979Z,15.78
2023-05-01T01:33:07.390Z,15.80
2023-05-01T01:35:43.058Z,15.81
2023-05-01T01:38:26.587Z,15.80
2023-05-01T01:41:33.797Z,15.73
2023-05-01T01:44:58.980Z,15.65
2023-05-01T01:47:40.328Z,15.50
2023-05-01T01:50:14.979Z,15.35
2023-05-01T01:53:07.138Z,15.26
2023-05-01T01:56:17.575Z,15.16
2023-05-01T01:58:51.481Z,15.05
2023-05-01T02:02:09.659Z,14.95
2023-05-01T02:05:18.796Z,14.85
2023-05-01T02:08:20.448Z,14.77
2023-05-01T02:11:02.249Z,14.70
2023-05-01T02:13:40.658Z,14.66
2023-05-01T02:16:11.487Z,14.61
2023-05-01T02:18:51.545Z,14.54
2023-05-01T02:21:25.105Z,14.48
2023-05-01T02:24:54.164Z,14.39
2023-05-01T02:28:05.430Z,14.32
2023-05-01T02:30:34.662Z,14.27
2023-05-01T02:33:07.250Z,14.22
2023-05-01T02:36:21.736Z,14.17
2023-05-01T02:39:41.578Z,14.12
2023-05-01T02:43:10.915Z,14.09
2023-05-01T02:46:40.227Z,14.07
2023-05-01T02:50:09.667Z,14.06
2023-05-01T02:53:42.032Z,14.07
2023-05-01T02:57:11.073Z,14.07
2023-05-01T03:00:40.872Z,14.07
2023-05-01T03:04:01.383Z,14.08
2023-05-01T03:07:30.750Z,14.08
2023-05-01T03:11:00.364Z,14.06
2023-05-01T03:14:29.932Z,14.06
2023-05-01T03:17:58.904Z,14.05
2023-05-01T03:21:34.269Z,14.04
2023-05-01T03:25:03.644Z,14.04
2023-05-01T03:28:25.919Z,14.01
2023-05-01T03:31:55.090Z,13.97
2023-05-01T03:35:24.701Z,13.93
2023-05-01T03:38:54.115Z,13.87
2023-05-01T03:46:06.092Z,13.82
2023-05-01T03:49:34.015Z,13.84
2023-05-01T03:53:03.559Z,13.87
2023-05-01T03:56:08.760Z,13.89
2023-05-01T03:59:38.492Z,13.91
2023-05-01T04:03:08.156Z,13.93
2023-05-01T04:06:37.826Z,13.95
2023-05-01T04:10:07.347Z,13.97
2023-05-01T04:13:36.700Z,14.01
2023-05-01T04:17:06.688Z,14.04
2023-05-01T04:20:36.808Z,14.06
2023-05-01T04:24:06.176Z,14.06
2023-05-01T04:27:35.652Z,14.06
2023-05-01T04:31:06.196Z,14.06
2023-05-01T04:34:35.268Z,14.05
2023-05-01T04:38:03.214Z,14.05
2023-05-01T04:41:32.112Z,14.06
2023-05-01T04:45:39.349Z,14.07
2023-05-01T04:48:51.673Z,14.06
2023-05-01T04:52:20.874Z,14.08
2023-05-01T04:55:50.450Z,14.07
2023-05-01T04:59:20.346Z,14.05
2023-05-01T05:02:49.944Z,14.06
2023-05-01T05:06:19.067Z,14.04
2023-05-01T05:09:40.797Z,14.03
2023-05-01T05:13:00.906Z,13.99
2023-05-01T05:16:29.626Z,13.91
2023-05-01T05:20:00.067Z,13.87
2023-05-01T05:23:29.800Z,13.78
2023-05-01T05:26:52.204Z,13.73
2023-05-01T05:30:05.342Z,13.66
2023-05-01T05:33:34.779Z,13.59
2023-05-01T05:37:04.262Z,13.51
2023-05-01T05:40:35.498Z,13.45
2023-05-01T05:44:04.982Z,13.39
2023-05-01T05:47:19.723Z,13.33
2023-05-01T05:50:49.325Z,13.28
2023-05-01T05:54:18.572Z,13.23
2023-05-01T05:57:27.421Z,13.19
2023-05-01T06:00:57.717Z,13.15
2023-05-01T06:04:27.197Z,13.12
2023-05-01T06:07:56.475Z,13.08
2023-05-01T06:11:25.739Z,13.04
2023-05-01T06:14:54.948Z,12.98
2023-05-01T06:18:24.336Z,12.92
2023-05-01T06:21:46.197Z,12.86
2023-05-01T06:25:15.400Z,12.82
2023-05-01T06:28:44.619Z,12.80
2023-05-01T06:32:14.105Z,12.77
2023-05-01T06:35:43.525Z,12.75
2023-05-01T06:39:12.866Z,12.73
2023-05-01T06:42:42.510Z,12.71
2023-05-01T06:46:12.347Z,12.67
2023-05-01T06:49:42.200Z,12.64
2023-05-01T06:53:11.716Z,12.60
2023-05-01T06:56:41.128Z,12.55
2023-05-01T07:00:11.470Z,12.54
2023-05-01T07:03:40.805Z,12.54
2023-05-01T07:07:10.154Z,12.55
2023-05-01T07:10:19.913Z,12.58
2023-05-01T07:13:49.322Z,12.60
2023-05-01T07:17:08.808Z,12.63
2023-05-01T07:20:38.610Z,12.64
2023-05-01T07:24:07.968Z,12.69
2023-05-01T07:27:37.036Z,12.73
2023-05-01T07:31:07.647Z,12.77
2023-05-01T07:34:36.644Z,12.79
2023-05-01T07:38:05.508Z,12.83
2023-05-01T07:41:34.978Z,12.89
2023-05-01T07:44:57.485Z,12.95
2023-05-01T07:48:27.012Z,12.97
2023-05-01T07:51:56.122Z,13.01
2023-05-01T07:55:25.941Z,13.04
2023-05-01T07:58:55.378Z,13.08
2023-05-01T08:02:18.360Z,13.10
2023-05-01T08:05:47.703Z,13.12
2023-05-01T08:09:17.215Z,13.12
2023-05-01T08:12:46.496Z,13.12
2023-05-01T08:16:16.604Z,13.12
2023-05-01T08:19:46.178Z,13.14
2023-05-01T08:23:15.597Z,13.14
2023-05-01T08:26:45.098Z,13.13
2023-05-01T08:30:15.083Z,13.10
2023-05-01T08:33:43.377Z,13.03
2023-05-01T08:37:12.567Z,12.95
2023-05-01T08:40:41.922Z,12.85
2023-05-01T08:43:46.377Z,12.74
2023-05-01T08:47:05.148Z,12.62
2023-05-01T08:50:33.897Z,12.52
2023-05-01T08:54:03.743Z,12.46
2023-05-01T08:57:32.735Z,12.40
2023-05-01T09:01:01.896Z,12.32
2023-05-01T09:04:31.653Z,12.23
2023-05-01T09:07:54.346Z,12.17
2023-05-01T09:11:24.346Z,12.10
2023-05-01T09:14:53.289Z,12.03
2023-05-01T09:18:22.080Z,11.94
2023-05-01T09:21:43.438Z,11.83
2023-05-01T09:25:04.543Z,11.74
2023-05-01T09:28:09.095Z,11.66
2023-05-01T09:31:31.180Z,11.58
2023-05-01T09:34:56.288Z,11.48
2023-05-01T09:38:15.307Z,11.37
2023-05-01T09:41:40.952Z,11.27
2023-05-01T09:45:10.526Z,11.16
2023-05-01T09:47:39.792Z,11.07
2023-05-01T09:51:15.256Z,11.02
2023-05-01T09:54:18.945Z,10.95
2023-05-01T09:57:44.188Z,10.90
2023-05-01T10:01:13.336Z,10.82
2023-05-01T10:04:43.096Z,10.76
2023-05-01T10:08:15.673Z,10.73
2023-05-01T10:11:35.236Z,10.74
2023-05-01T10:15:23.829Z,10.79
2023-05-01T10:18:35.795Z,10.86
2023-05-01T10:22:05.045Z,10.91
2023-05-01T10:25:34.263Z,10.94
2023-05-01T10:29:03.384Z,11.01
2023-05-01T10:32:33.189Z,11.10
2023-05-01T10:36:02.918Z,11.18
2023-05-01T10:39:31.751Z,11.25
2023-05-01T10:43:05.732Z,11.34
2023-05-01T10:46:35.054Z,11.42
2023-05-01T10:49:59.119Z,11.48
2023-05-01T10:53:26.386Z,11.53
2023-05-01T10:57:05.131Z,11.58
2023-05-01T11:00:46.273Z,11.64
2023-05-01T11:04:14.829Z,11.71
2023-05-01T11:07:44.136Z,11.75
2023-05-01T11:11:16.990Z,11.79
2023-05-01T11:14:44.706Z,11.82
2023-05-01T11:18:22.901Z,11.83
2023-05-01T11:21:52.077Z,11.83
2023-05-01T11:25:21.078Z,11.83
2023-05-01T11:28:50.924Z,11.83
2023-05-01T11:32:20.661Z,11.84
2023-05-01T11:35:50.325Z,11.84
2023-05-01T11:39:08.774Z,11.83
2023-05-01T11:42:48.323Z,11.80
2023-05-01T11:46:17.717Z,11.75
2023-05-01T11:49:47.132Z,11.67
2023-05-01T11:53:26.000Z,11.58
2023-05-01T11:57:04.520Z,11.48
2023-05-01T12:00:33.349Z,11.40
2023-05-01T12:04:05.663Z,11.31
2023-05-01T12:07:37.832Z,11.22
2023-05-01T12:11:08.337Z,11.15
2023-05-01T12:14:37.519Z,11.10
2023-05-01T12:18:08.145Z,11.05
2023-05-01T12:21:33.161Z,11.02
2023-05-01T12:25:11.466Z,11.02
2023-05-01T12:28:49.685Z,11.04
2023-05-01T12:32:19.065Z,11.03
2023-05-01T12:35:53.888Z,11.00
2023-05-01T12:39:23.201Z,10.94
2023-05-01T12:42:48.345Z,10.92
2023-05-01T12:46:20.290Z,10.89
2023-05-01T12:49:42.698Z,10.88
2023-05-01T12:53:12.021Z,10.87
2023-05-01T12:56:51.002Z,10.86
2023-05-01T13:00:23.674Z,10.84
2023-05-01T13:03:38.528Z,10.81
2023-05-01T13:07:15.318Z,10.78
2023-05-01T13:10:55.871Z,10.77
2023-05-01T13:14:17.369Z,10.78
2023-05-01T13:17:47.017Z,10.78
2023-05-01T13:21:16.562Z,10.79
2023-05-01T13:24:46.592Z,10.81
2023-05-01T13:28:15.991Z,10.85
2023-05-01T13:31:32.950Z,10.91
2023-05-01T13:35:07.243Z,10.98
2023-05-01T13:38:40.508Z,11.04
2023-05-01T13:42:10.758Z,11.10
2023-05-01T13:45:46.162Z,11.17
2023-05-01T13:49:15.494Z,11.26
2023-05-01T13:52:44.754Z,11.35
2023-05-01T13:56:13.965Z,11.43
2023-05-01T13:59:43.326Z,11.50
2023-05-01T14:03:15.773Z,11.57
2023-05-01T14:06:47.760Z,11.64
2023-05-01T14:10:02.714Z,11.71
2023-05-01T14:13:33.028Z,11.76
2023-05-01T14:17:08.638Z,11.81
2023-05-01T14:20:17.469Z,11.84
2023-05-01T14:23:46.617Z,11.88
2023-05-01T14:27:16.329Z,11.93
2023-05-01T14:30:46.993Z,11.97
2023-05-01T14:34:16.611Z,12.00
2023-05-01T14:37:46.187Z,12.01
2023-05-01T14:41:15.779Z,12.04
2023-05-01T14:44:44.667Z,12.06
2023-05-01T14:48:14.117Z,12.13
2023-05-01T14:51:43.480Z,12.19
2023-05-01T14:55:13.395Z,12.22
2023-05-01T14:58:23.012Z,12.24
2023-05-01T15:01:52.322Z,12.23
2023-05-01T15:05:22.218Z,12.21
2023-05-01T15:08:51.513Z,12.20
2023-05-01T15:12:21.325Z,12.19
2023-05-01T15:15:50.797Z,12.19
2023-05-01T15:19:20.276Z,12.18
2023-05-01T15:22:49.748Z,12.16
2023-05-01T15:26:19.318Z,12.13
2023-05-01T15:29:34.077Z,12.11
2023-05-01T15:32:53.733Z,12.10
2023-05-01T15:36:23.290Z,12.09
2023-05-01T15:39:52.566Z,12.06
2023-05-01T15:43:21.953Z,12.02
2023-05-01T15:46:51.757Z,11.99
2023-05-01T15:50:22.072Z,12.01
2023-05-01T15:53:51.513Z,11.99
2023-05-01T15:57:20.831Z,11.96
2023-05-01T16:00:50.813Z,11.93
2023-05-01T16:04:13.218Z,11.91
2023-05-01T16:07:42.396Z,11.91
2023-05-01T16:11:12.282Z,11.90
2023-05-01T16:14:41.730Z,11.88
2023-05-01T16:18:06.004Z,11.88
2023-05-01T16:21:35.162Z,11.92
2023-05-01T16:25:04.518Z,11.94
2023-05-01T16:27:57.556Z,11.95
2023-05-01T16:31:19.527Z,11.95
2023-05-01T16:34:56.076Z,11.97
2023-05-01T16:38:25.852Z,12.01
2023-05-01T16:41:58.056Z,12.03
2023-05-01T16:45:08.686Z,12.04
2023-05-01T16:48:38.373Z,12.05
2023-05-01T16:51:38.257Z,12.10
2023-05-01T16:54:57.900Z,12.15
2023-05-01T16:58:27.635Z,12.23
2023-05-01T17:01:57.379Z,12.32
2023-05-01T17:05:27.277Z,12.41
2023-05-01T17:08:56.657Z,12.49
2023-05-01T17:12:27.646Z,12.58
2023-05-01T17:15:57.337Z,12.65
2023-05-01T17:19:26.878Z,12.71
2023-05-01T17:22:56.304Z,12.77
2023-05-01T17:26:25.770Z,12.80
2023-05-01T17:29:47.647Z,12.84
2023-05-01T17:33:17.340Z,12.88
2023-05-01T17:36:40.400Z,12.92
2023-05-01T17:39:49.654Z,12.92
2023-05-01T17:43:20.097Z,12.96
2023-05-01T17:46:49.595Z,12.96
2023-05-01T17:50:18.612Z,12.97
2023-05-01T17:53:21.947Z,12.97
2023-05-01T17:56:51.698Z,12.98
2023-05-01T18:00:20.861Z,12.99
2023-05-01T18:03:50.456Z,13.01
2023-05-01T18:07:10.236Z,13.06
2023-05-01T18:10:39.894Z,13.09
2023-05-01T18:14:09.537Z,13.11
2023-05-01T18:17:39.557Z,13.11
2023-05-01T18:21:09.209Z,13.10
2023-05-01T18:24:31.854Z,13.09
2023-05-01T18:28:01.206Z,13.07
2023-05-01T18:31:30.624Z,13.02
2023-05-01T18:34:53.539Z,12.99
2023-05-01T18:38:07.934Z,12.97
2023-05-01T18:41:34.008Z,12.95
2023-05-01T18:44:53.205Z,12.94
2023-05-01T18:48:22.643Z,12.91
2023-05-01T18:51:33.292Z,12.89
2023-05-01T18:54:35.993Z,12.85
2023-05-01T18:58:05.511Z,12.83
2023-05-01T19:01:34.893Z,12.80
2023-05-01T19:04:56.904Z,12.79
2023-05-01T19:08:27.005Z,12.79
2023-05-01T19:11:42.477Z,12.80
2023-05-01T19:15:11.984Z,12.81
2023-05-01T19:18:41.186Z,12.82
2023-05-01T19:22:09.313Z,12.86
2023-05-01T19:25:38.877Z,12.88
2023-05-01T19:29:08.324Z,12.88
2023-05-01T19:32:30.712Z,12.88
2023-05-01T19:35:43.022Z,12.88
2023-05-01T19:38:32.360Z,12.88
2023-05-01T19:42:02.216Z,12.89
2023-05-01T19:45:30.792Z,12.92
2023-05-01T19:48:28.975Z,12.93
2023-05-01T19:51:38.458Z,12.92
2023-05-01T19:55:07.638Z,12.94
2023-05-01T19:58:37.501Z,12.95
2023-05-01T20:02:06.911Z,12.93
2023-05-01T20:05:36.240Z,12.92
2023-05-01T20:09:04.406Z,12.91
2023-05-01T20:12:35.061Z,12.90
2023-05-01T20:15:47.770Z,12.92
2023-05-01T20:19:09.666Z,12.92
2023-05-01T20:22:37.844Z,12.94
2023-05-01T20:26:06.928Z,12.97
2023-05-01T20:29:26.756Z,13.02
2023-05-01T20:32:47.264Z,13.08
2023-05-01T20:36:17.059Z,13.15
2023-05-01T20:39:46.849Z,13.23
2023-05-01T20:43:16.201Z,13.31
2023-05-01T20:46:45.882Z,13.38
2023-05-01T20:50:15.571Z,13.46
2023-05-01T20:53:29.980Z,13.55
2023-05-01T20:56:22.661Z,13.62
2023-05-01T20:59:32.121Z,13.69
2023-05-01T21:02:49.819Z,13.78
2023-05-01T21:06:19.684Z,13.86
2023-05-01T21:09:49.181Z,13.95
2023-05-01T21:13:18.909Z,13.99
2023-05-01T21:16:48.512Z,14.04
2023-05-01T21:20:10.696Z,14.06
2023-05-01T21:23:42.391Z,14.07
2023-05-01T21:27:04.739Z,14.07
2023-05-01T21:30:33.994Z,14.07
2023-05-01T21:33:51.581Z,14.07
2023-05-01T21:37:14.058Z,14.10
2023-05-01T21:40:43.347Z,14.15
2023-05-01T21:44:16.127Z,14.20
2023-05-01T21:47:45.514Z,14.22
2023-05-01T21:51:06.765Z,14.21
2023-05-01T21:54:37.319Z,14.18
2023-05-01T21:58:07.149Z,14.17
2023-05-01T22:01:36.649Z,14.14
2023-05-01T22:05:05.783Z,14.10
2023-05-01T22:08:35.407Z,14.08
2023-05-01T22:11:54.094Z,14.05
2023-05-01T22:15:24.320Z,14.04
2023-05-01T22:18:46.622Z,14.01
2023-05-01T22:22:17.290Z,13.99
2023-05-01T22:25:36.459Z,13.96
2023-05-01T22:29:05.637Z,13.93
2023-05-01T22:32:35.282Z,13.90
2023-05-01T22:36:07.365Z,13.86
2023-05-01T22:39:35.876Z,13.82
2023-05-01T22:42:57.172Z,13.78
2023-05-01T22:46:26.490Z,13.75
2023-05-01T22:49:56.000Z,13.72
2023-05-01T22:53:26.292Z,13.70
2023-05-01T22:56:49.450Z,13.69
2023-05-01T23:00:18.867Z,13.68
2023-05-01T23:03:48.029Z,13.65
2023-05-01T23:07:17.337Z,13.63
2023-05-01T23:10:46.911Z,13.61
2023-05-01T23:14:24.925Z,13.59
2023-05-01T23:17:53.729Z,13.57
2023-05-01T23:21:17.104Z,13.56
2023-05-01T23:24:41.010Z,13.56
2023-05-01T23:28:07.382Z,13.59
2023-05-01T23:31:36.434Z,13.59
2023-05-01T23:34:47.242Z,13.61
2023-05-01T23:38:19.679Z,13.62
2023-05-01T23:41:48.768Z,13.62
2023-05-01T23:45:18.362Z,13.61
2023-05-01T23:48:47.787Z,13.60
2023-05-01T23:52:18.363Z,13.58
2023-05-01T23:55:47.229Z,13.58
2023-05-01T23:58:59.786Z,13.60
